Time;durP1;ratioP1;P1;durP2;ratioP2;P2;SDS_P1;SDS_P2;PMS_P1;PMS_P2;Temp;Humidity;BMP_temperature;BMP_pressure;BME280_temperature;BME280_humidity;BME280_pressure;Samples;Min_cycle;Max_cycle;Signal;HPM_P1;HPM_P2
2021/11/04 00:01:45;;;;;;;1.67;1.50;;;8.00;98.20;;;;;;5068730;28;20581;-76
2021/11/04 00:04:12;;;;;;;1.60;1.30;;;7.90;98.20;;;;;;5059505;28;20458;-77
2021/11/04 00:06:40;;;;;;;1.60;1.30;;;7.90;98.20;;;;;;5067775;28;20473;-76
2021/11/04 00:09:07;;;;;;;1.60;1.30;;;7.90;98.20;;;;;;5060574;28;20470;-76
2021/11/04 00:11:33;;;;;;;1.70;1.40;;;7.90;98.20;;;;;;5061262;28;20481;-76
2021/11/04 00:14:00;;;;;;;1.60;1.30;;;7.90;98.20;;;;;;5066380;28;20465;-76
2021/11/04 00:16:27;;;;;;;1.73;1.63;;;7.90;98.20;;;;;;5068429;28;20485;-76
2021/11/04 00:18:53;;;;;;;1.60;1.23;;;7.90;98.20;;;;;;5068184;28;20897;-76
2021/11/04 00:21:20;;;;;;;1.60;1.20;;;7.90;98.20;;;;;;5066939;28;20486;-76
2021/11/04 00:23:50;;;;;;;1.60;1.40;;;7.90;98.20;;;;;;5048028;28;20467;-76
2021/11/04 00:26:17;;;;;;;1.60;1.30;;;7.90;98.20;;;;;;5063573;28;20473;-76
2021/11/04 00:28:43;;;;;;;1.60;1.20;;;7.90;98.20;;;;;;5067779;28;20461;-77
2021/11/04 00:31:12;;;;;;;1.60;1.20;;;7.90;98.20;;;;;;5067862;28;20489;-76
2021/11/04 00:33:39;;;;;;;1.60;1.23;;;7.90;98.20;;;;;;5056132;28;20463;-76
2021/11/04 00:36:06;;;;;;;1.60;1.27;;;7.90;98.20;;;;;;5066439;28;20853;-76
2021/11/04 00:38:33;;;;;;;1.60;1.30;;;7.80;98.20;;;;;;5050088;28;20474;-76
2021/11/04 00:41:02;;;;;;;1.60;1.20;;;7.80;98.20;;;;;;5048297;28;20858;-77
2021/11/04 00:43:28;;;;;;;1.60;1.40;;;7.80;98.20;;;;;;5062596;28;20476;-76
2021/11/04 00:45:55;;;;;;;1.60;1.27;;;7.90;98.20;;;;;;5067868;28;20476;-76
2021/11/04 00:48:22;;;;;;;1.57;1.20;;;7.90;98.20;;;;;;5068054;28;20457;-77
2021/11/04 00:50:49;;;;;;;4.07;3.70;;;7.90;98.20;;;;;;5068888;28;20492;-77
2021/11/04 00:53:16;;;;;;;1.60;1.30;;;7.90;98.20;;;;;;5065158;28;20990;-76
2021/11/04 00:55:42;;;;;;;1.60;1.20;;;7.90;98.20;;;;;;5068231;28;20472;-76
2021/11/04 00:58:10;;;;;;;1.60;1.20;;;7.90;98.20;;;;;;5072374;28;20842;-76
2021/11/04 01:00:37;;;;;;;1.60;1.30;;;7.90;98.20;;;;;;5066145;28;20488;-76
2021/11/04 01:03:04;;;;;;;1.60;1.30;;;7.90;98.20;;;;;;5071865;28;20453;-78
2021/11/04 01:05:31;;;;;;;1.60;1.40;;;7.90;98.20;;;;;;5066460;28;20457;-75
2021/11/04 01:07:59;;;;;;;1.60;1.20;;;7.90;98.20;;;;;;5071766;28;20547;-77
2021/11/04 01:10:26;;;;;;;1.60;1.23;;;7.90;98.20;;;;;;5071904;28;21045;-77
2021/11/04 01:12:53;;;;;;;1.60;1.40;;;7.90;98.20;;;;;;5071444;28;20457;-76
2021/11/04 01:15:22;;;;;;;1.60;1.23;;;7.90;98.20;;;;;;5050530;28;20462;-76
2021/11/04 01:17:49;;;;;;;1.60;1.30;;;7.90;98.20;;;;;;5069964;28;20507;-76
2021/11/04 01:20:16;;;;;;;2.13;1.93;;;7.90;98.20;;;;;;5069841;28;20465;-76
2021/11/04 01:22:43;;;;;;;1.60;1.20;;;8.00;98.20;;;;;;5069805;28;20461;-76
2021/11/04 01:25:11;;;;;;;1.60;1.30;;;8.00;98.20;;;;;;5071208;28;20464;-76
2021/11/04 01:27:38;;;;;;;1.60;1.23;;;8.00;98.20;;;;;;5070395;28;20457;-76
2021/11/04 01:30:06;;;;;;;1.60;1.20;;;7.90;98.20;;;;;;5070565;28;20461;-76
2021/11/04 01:32:34;;;;;;;1.60;1.30;;;7.90;98.20;;;;;;5069816;28;20470;-76
2021/11/04 01:35:01;;;;;;;1.70;1.23;;;7.90;98.20;;;;;;5070799;28;20462;-76
2021/11/04 01:37:28;;;;;;;1.60;1.27;;;7.90;98.20;;;;;;5070318;28;20485;-77
2021/11/04 01:39:55;;;;;;;1.60;1.20;;;7.80;98.20;;;;;;5071111;28;20475;-77
2021/11/04 01:42:22;;;;;;;1.60;1.20;;;7.80;98.20;;;;;;5070061;28;20485;-76
2021/11/04 01:44:50;;;;;;;1.60;1.30;;;7.80;98.20;;;;;;5070341;28;20458;-76
2021/11/04 01:47:17;;;;;;;1.60;1.20;;;7.80;98.20;;;;;;5070555;28;20472;-77
2021/11/04 01:49:45;;;;;;;1.60;1.30;;;7.80;98.20;;;;;;5069982;28;20469;-76
2021/11/04 01:52:12;;;;;;;1.60;1.40;;;7.80;98.20;;;;;;5069648;28;20485;-76
2021/11/04 01:54:40;;;;;;;1.60;1.30;;;7.80;98.20;;;;;;5070111;28;20464;-77
2021/11/04 01:57:06;;;;;;;5.50;3.10;;;7.80;98.20;;;;;;5070526;28;20492;-77
2021/11/04 01:59:33;;;;;;;1.60;1.30;;;7.70;98.20;;;;;;5070596;28;20465;-76
2021/11/04 02:02:06;;;;;;;1.87;1.63;;;7.70;98.20;;;;;;5070019;28;20489;-76
2021/11/04 02:04:41;;;;;;;1.60;1.23;;;7.70;98.20;;;;;;5067055;28;20860;-77
2021/11/04 02:07:14;;;;;;;1.60;1.30;;;7.60;98.20;;;;;;5065163;28;20464;-77
2021/11/04 02:09:46;;;;;;;1.60;1.40;;;7.60;98.20;;;;;;5061840;28;20499;-76
2021/11/04 02:12:18;;;;;;;1.60;1.30;;;7.60;98.20;;;;;;5066926;28;20496;-77
2021/11/04 02:14:46;;;;;;;1.60;1.30;;;7.60;98.20;;;;;;5055277;28;20450;-77
2021/11/04 02:17:15;;;;;;;1.60;1.27;;;7.60;98.20;;;;;;5064964;28;20492;-76
2021/11/04 02:19:45;;;;;;;1.60;1.33;;;7.60;98.20;;;;;;5072058;28;20465;-77
2021/11/04 02:22:25;;;;;;;1.60;1.30;;;7.60;98.20;;;;;;5066802;28;20942;-77
2021/11/04 02:25:12;;;;;;;2.13;1.93;;;7.60;98.20;;;;;;5064485;28;20479;-77
2021/11/04 02:27:42;;;;;;;1.60;1.30;;;7.60;98.20;;;;;;5068230;28;20460;-77
2021/11/04 02:30:09;;;;;;;1.63;1.30;;;7.60;98.20;;;;;;5065453;28;20472;-77
2021/11/04 02:32:37;;;;;;;1.60;1.20;;;7.60;98.20;;;;;;5068139;28;20468;-77
2021/11/04 02:35:05;;;;;;;1.60;1.30;;;7.60;98.20;;;;;;5065662;28;20470;-77
2021/11/04 02:37:33;;;;;;;1.60;1.30;;;7.50;98.20;;;;;;5060596;28;20482;-77
2021/11/04 02:40:02;;;;;;;1.70;1.40;;;7.60;98.20;;;;;;5062895;28;20466;-77
2021/11/04 02:42:29;;;;;;;1.70;1.40;;;7.60;98.20;;;;;;5062467;28;20453;-75
2021/11/04 02:44:56;;;;;;;1.60;1.37;;;7.60;98.20;;;;;;5072794;28;20454;-76
2021/11/04 02:47:24;;;;;;;1.60;1.23;;;7.60;98.20;;;;;;5064691;28;20462;-77
2021/11/04 02:49:53;;;;;;;1.60;1.30;;;7.60;98.20;;;;;;5063400;28;20453;-75
2021/11/04 02:52:20;;;;;;;1.60;1.30;;;7.60;98.20;;;;;;5072578;28;20761;-76
2021/11/04 02:54:53;;;;;;;1.60;1.30;;;7.60;98.20;;;;;;5057121;28;20454;-77
2021/11/04 02:57:21;;;;;;;1.60;1.30;;;7.60;98.20;;;;;;5055709;28;20515;-76
2021/11/04 02:59:49;;;;;;;2.17;1.90;;;7.60;98.20;;;;;;5075222;28;20465;-77
2021/11/04 03:02:16;;;;;;;4.27;3.20;;;7.60;98.20;;;;;;5074683;28;20485;-76
2021/11/04 03:04:43;;;;;;;1.60;1.30;;;7.60;98.20;;;;;;5074879;28;20457;-76
2021/11/04 03:07:10;;;;;;;1.60;1.30;;;7.60;98.20;;;;;;5073216;28;20477;-76
2021/11/04 03:09:36;;;;;;;1.60;1.20;;;7.60;98.20;;;;;;5073814;28;20472;-77
2021/11/04 03:12:04;;;;;;;1.60;1.30;;;7.60;98.20;;;;;;5072634;28;20484;-76
2021/11/04 03:14:33;;;;;;;1.60;1.20;;;7.60;98.20;;;;;;5071976;28;20469;-75
2021/11/04 03:17:03;;;;;;;1.60;1.30;;;7.60;98.20;;;;;;5064009;28;20480;-76
2021/11/04 03:19:31;;;;;;;1.60;1.30;;;7.60;98.20;;;;;;5072525;28;21023;-77
2021/11/04 03:21:59;;;;;;;1.60;1.30;;;7.60;98.20;;;;;;5071581;28;20484;-76
2021/11/04 03:24:27;;;;;;;1.60;1.20;;;7.50;98.20;;;;;;5053131;28;20465;-76
2021/11/04 03:26:59;;;;;;;1.60;1.30;;;7.50;98.20;;;;;;5052425;28;20462;-77
2021/11/04 03:29:28;;;;;;;1.60;1.30;;;7.50;98.20;;;;;;5051888;28;20443;-76
2021/11/04 03:31:57;;;;;;;1.60;1.30;;;7.50;98.20;;;;;;5069789;28;20787;-76
2021/11/04 03:34:25;;;;;;;1.60;1.30;;;7.40;98.20;;;;;;5071365;28;20945;-76
2021/11/04 03:36:53;;;;;;;1.60;1.30;;;7.40;98.20;;;;;;5060902;28;20512;-76
2021/11/04 03:39:21;;;;;;;7.00;3.00;;;7.40;98.20;;;;;;5051896;28;20482;-76
2021/11/04 03:41:51;;;;;;;1.60;1.30;;;7.40;98.20;;;;;;5051916;28;20833;-76
2021/11/04 03:44:19;;;;;;;1.60;1.30;;;7.30;98.20;;;;;;5051739;28;20462;-76
2021/11/04 03:46:47;;;;;;;1.60;1.20;;;7.30;98.20;;;;;;5052350;28;20469;-77
2021/11/04 03:49:18;;;;;;;1.60;1.30;;;7.30;98.20;;;;;;5051748;28;20454;-76
2021/11/04 03:51:47;;;;;;;1.73;1.50;;;7.30;98.20;;;;;;5063226;28;20961;-76
2021/11/04 03:54:14;;;;;;;1.60;1.27;;;7.20;98.20;;;;;;5072215;28;20808;-77
2021/11/04 03:56:41;;;;;;;1.60;1.20;;;7.20;98.20;;;;;;5071779;28;20469;-77
2021/11/04 03:59:08;;;;;;;1.77;1.57;;;7.20;98.20;;;;;;5072351;28;20508;-76
2021/11/04 04:01:35;;;;;;;1.60;1.30;;;7.10;98.20;;;;;;5071585;28;20497;-76
2021/11/04 04:04:02;;;;;;;1.60;1.20;;;7.10;98.20;;;;;;5071507;28;20484;-76
2021/11/04 04:06:32;;;;;;;1.60;1.20;;;7.00;98.20;;;;;;5071172;28;20470;-76
2021/11/04 04:09:00;;;;;;;1.63;1.30;;;7.00;98.20;;;;;;5071587;28;20475;-77
2021/11/04 04:11:27;;;;;;;1.60;1.30;;;7.00;98.20;;;;;;5071713;28;20477;-76
2021/11/04 04:13:55;;;;;;;1.60;1.30;;;7.00;98.20;;;;;;5071792;28;20544;-75
2021/11/04 04:16:22;;;;;;;1.60;1.30;;;7.00;98.20;;;;;;5071530;28;20465;-77
2021/11/04 04:18:49;;;;;;;1.60;1.30;;;7.00;98.20;;;;;;5070448;28;20482;-77
2021/11/04 04:21:16;;;;;;;1.60;1.30;;;7.00;98.20;;;;;;5070653;28;20573;-76
2021/11/04 04:23:45;;;;;;;1.60;1.23;;;7.10;98.20;;;;;;5071596;28;20849;-76
2021/11/04 04:26:11;;;;;;;1.60;1.30;;;7.10;98.20;;;;;;5095691;22;20472;-75
2021/11/04 04:28:38;;;;;;;1.60;1.20;;;7.00;98.20;;;;;;5049342;28;20464;-77
2021/11/04 04:31:05;;;;;;;1.60;1.30;;;7.00;98.20;;;;;;5047308;28;20661;-77
2021/11/04 04:33:32;;;;;;;1.60;1.30;;;7.00;98.20;;;;;;5054273;28;20489;-77
2021/11/04 04:38:47;;;;;;;1.60;1.20;;;7.00;98.20;;;;;;5057910;28;20482;-77
2021/11/04 04:41:17;;;;;;;1.60;1.30;;;6.90;98.20;;;;;;5065011;28;20484;-77
2021/11/04 04:43:46;;;;;;;1.60;1.30;;;6.90;98.20;;;;;;5063774;28;20533;-78
2021/11/04 04:46:14;;;;;;;1.60;1.30;;;6.90;98.20;;;;;;5063884;28;20473;-76
2021/11/04 04:48:41;;;;;;;1.60;1.30;;;7.00;98.20;;;;;;5056625;28;20739;-78
2021/11/04 04:51:08;;;;;;;1.60;1.30;;;7.00;98.20;;;;;;5045547;28;20462;-78
2021/11/04 04:53:38;;;;;;;1.70;1.40;;;7.00;98.20;;;;;;5036943;28;20890;-77
2021/11/04 04:56:07;;;;;;;1.70;1.40;;;7.00;98.20;;;;;;5040599;28;20511;-77
2021/11/04 04:58:34;;;;;;;1.60;1.30;;;7.00;98.20;;;;;;5056791;28;20478;-76
2021/11/04 05:01:01;;;;;;;1.60;1.20;;;7.00;98.20;;;;;;5048669;28;20462;-77
2021/11/04 05:03:27;;;;;;;1.70;1.50;;;7.10;98.20;;;;;;5039859;28;20466;-77
2021/11/04 05:05:54;;;;;;;1.60;1.30;;;7.10;98.20;;;;;;5043318;28;20485;-77
2021/11/04 05:08:21;;;;;;;1.63;1.30;;;7.10;98.20;;;;;;5041695;28;20841;-77
2021/11/04 05:10:48;;;;;;;1.60;1.30;;;7.10;98.20;;;;;;5041715;28;20469;-77
2021/11/04 05:13:16;;;;;;;1.60;1.30;;;7.10;98.20;;;;;;5040448;28;21009;-77
2021/11/04 05:15:43;;;;;;;1.60;1.30;;;7.10;98.20;;;;;;5037443;28;20948;-77
2021/11/04 05:18:11;;;;;;;1.60;1.20;;;7.10;98.20;;;;;;5051034;28;20652;-77
2021/11/04 05:20:38;;;;;;;1.60;1.30;;;7.10;98.20;;;;;;5040218;28;20474;-77
2021/11/04 05:23:05;;;;;;;1.60;1.30;;;7.10;98.20;;;;;;5043357;28;20493;-77
2021/11/04 05:25:32;;;;;;;3.30;3.10;;;7.10;98.20;;;;;;5035796;28;20459;-78
2021/11/04 05:27:59;;;;;;;1.60;1.20;;;7.10;98.20;;;;;;5038639;28;20578;-77
2021/11/04 05:30:28;;;;;;;1.60;1.30;;;7.10;98.20;;;;;;5032298;28;20474;-77
2021/11/04 05:32:55;;;;;;;1.63;1.40;;;7.10;98.20;;;;;;5034636;28;20789;-77
2021/11/04 05:35:21;;;;;;;1.60;1.30;;;7.10;98.20;;;;;;5028957;28;20463;-77
2021/11/04 05:37:48;;;;;;;1.70;1.50;;;7.10;98.20;;;;;;5048410;28;20549;-77
2021/11/04 05:40:16;;;;;;;1.60;1.20;;;7.10;98.20;;;;;;5062279;28;20468;-77
2021/11/04 05:42:43;;;;;;;1.60;1.20;;;7.00;98.20;;;;;;5061923;28;20473;-77
2021/11/04 05:45:10;;;;;;;1.60;1.30;;;7.00;98.20;;;;;;5065438;28;20469;-77
2021/11/04 05:47:38;;;;;;;1.60;1.30;;;7.00;98.20;;;;;;5061962;28;20475;-77
2021/11/04 05:50:06;;;;;;;1.60;1.30;;;7.00;98.20;;;;;;5058641;28;20481;-76
2021/11/04 05:52:33;;;;;;;1.60;1.30;;;6.90;98.20;;;;;;5059239;28;20458;-77
2021/11/04 05:55:01;;;;;;;1.60;1.30;;;6.90;98.20;;;;;;5066726;28;20979;-77
2021/11/04 05:57:28;;;;;;;1.60;1.30;;;6.90;98.20;;;;;;5070975;28;20951;-78
2021/11/04 05:59:55;;;;;;;1.60;1.30;;;6.90;98.20;;;;;;5071194;28;20523;-78
2021/11/04 06:02:25;;;;;;;1.60;1.30;;;6.90;98.20;;;;;;5071885;28;20663;-78
2021/11/04 06:04:53;;;;;;;1.60;1.20;;;6.90;98.20;;;;;;5055008;28;20454;-77
2021/11/04 06:07:20;;;;;;;1.60;1.30;;;6.90;98.20;;;;;;5065936;28;20613;-77
2021/11/04 06:09:47;;;;;;;1.60;1.30;;;6.90;98.20;;;;;;5069978;28;20985;-78
2021/11/04 06:12:14;;;;;;;1.60;1.30;;;6.80;98.20;;;;;;5067079;28;20546;-78
2021/11/04 06:14:41;;;;;;;1.60;1.30;;;6.80;98.20;;;;;;5059088;28;20669;-75
2021/11/04 06:17:08;;;;;;;1.63;1.30;;;6.80;98.20;;;;;;5059215;28;20490;-77
2021/11/04 06:19:35;;;;;;;1.60;1.40;;;6.80;98.20;;;;;;5061673;28;20486;-78
2021/11/04 06:22:04;;;;;;;1.60;1.30;;;6.80;98.20;;;;;;5060551;28;20464;-78
2021/11/04 06:24:31;;;;;;;1.60;1.30;;;6.80;98.20;;;;;;5061338;28;20798;-77
2021/11/04 06:26:58;;;;;;;1.60;1.30;;;6.80;98.20;;;;;;5062679;28;20559;-78
2021/11/04 06:29:25;;;;;;;1.60;1.30;;;6.90;98.20;;;;;;5076285;28;20569;-77
2021/11/04 06:31:51;;;;;;;3.30;3.10;;;6.90;98.20;;;;;;5058163;28;20474;-77
2021/11/04 06:34:18;;;;;;;1.70;1.60;;;6.90;98.20;;;;;;5069178;28;20634;-77
2021/11/04 06:36:45;;;;;;;1.60;1.20;;;6.90;98.20;;;;;;5074237;28;20497;-78
2021/11/04 06:39:14;;;;;;;1.60;1.30;;;6.90;98.20;;;;;;5063732;28;20492;-76
2021/11/04 06:41:41;;;;;;;1.60;1.20;;;6.90;98.20;;;;;;5062736;28;20465;-76
2021/11/04 06:44:08;;;;;;;1.60;1.40;;;6.90;98.20;;;;;;5061811;28;20466;-76
2021/11/04 06:46:36;;;;;;;1.70;1.30;;;6.90;98.20;;;;;;5061148;28;20477;-78
2021/11/04 06:49:07;;;;;;;1.60;1.30;;;7.00;98.20;;;;;;5074477;28;20958;-77
2021/11/04 06:51:38;;;;;;;1.60;1.20;;;6.90;98.20;;;;;;5070053;28;20469;-77
2021/11/04 06:54:07;;;;;;;1.60;1.30;;;7.00;98.20;;;;;;5065035;28;20848;-77
2021/11/04 06:56:40;;;;;;;1.60;1.30;;;7.00;98.20;;;;;;5065967;28;20485;-77
2021/11/04 06:59:17;;;;;;;1.63;1.40;;;7.00;98.20;;;;;;5057480;28;20592;-76
2021/11/04 07:01:50;;;;;;;1.60;1.27;;;6.90;98.20;;;;;;5066698;28;20891;-77
2021/11/04 07:04:24;;;;;;;1.60;1.20;;;6.90;98.20;;;;;;5064136;28;20595;-77
2021/11/04 07:07:00;;;;;;;1.60;1.30;;;6.80;98.20;;;;;;5068718;28;20480;-76
2021/11/04 07:09:29;;;;;;;1.60;1.20;;;6.80;98.20;;;;;;5064363;28;20469;-76
2021/11/04 07:11:58;;;;;;;1.70;1.50;;;6.90;98.20;;;;;;5065204;28;20470;-77
2021/11/04 07:14:28;;;;;;;1.60;1.23;;;6.90;98.20;;;;;;5068262;28;20478;-76
2021/11/04 07:16:56;;;;;;;1.60;1.30;;;6.90;98.20;;;;;;5058718;28;20535;-77
2021/11/04 07:19:23;;;;;;;1.60;1.30;;;6.90;98.20;;;;;;5069098;28;20486;-77
2021/11/04 07:21:59;;;;;;;1.60;1.30;;;7.00;98.20;;;;;;5067821;28;20457;-77
2021/11/04 07:24:32;;;;;;;1.60;1.20;;;7.00;98.20;;;;;;5061133;28;20472;-76
2021/11/04 07:27:14;;;;;;;1.60;1.20;;;7.00;98.20;;;;;;5056763;28;20542;-76
2021/11/04 07:29:44;;;;;;;1.60;1.23;;;7.00;98.20;;;;;;5071746;28;20465;-77
2021/11/04 07:32:15;;;;;;;1.63;1.40;;;7.00;98.20;;;;;;5070467;28;20828;-77
2021/11/04 07:34:44;;;;;;;1.60;1.30;;;6.90;98.20;;;;;;5071029;28;21019;-76
2021/11/04 07:37:12;;;;;;;1.60;1.30;;;6.90;98.20;;;;;;5070483;28;20493;-77
2021/11/04 07:39:40;;;;;;;1.60;1.20;;;6.90;98.20;;;;;;5070463;28;20493;-77
2021/11/04 07:42:09;;;;;;;1.60;1.30;;;6.90;98.20;;;;;;5068934;28;20848;-77
2021/11/04 07:44:37;;;;;;;1.60;1.20;;;7.00;98.20;;;;;;5058564;28;20462;-76
2021/11/04 07:47:07;;;;;;;1.60;1.20;;;7.00;98.20;;;;;;5064817;28;20481;-76
2021/11/04 07:49:34;;;;;;;2.10;1.90;;;7.00;98.20;;;;;;5063702;28;20466;-78
2021/11/04 07:52:06;;;;;;;1.60;1.30;;;7.00;98.20;;;;;;5065721;28;20567;-77
2021/11/04 07:54:33;;;;;;;1.60;1.27;;;7.00;98.20;;;;;;5068268;28;20464;-76
2021/11/04 07:57:01;;;;;;;1.60;1.40;;;7.10;98.20;;;;;;5069719;28;20535;-77
2021/11/04 07:59:31;;;;;;;1.60;1.30;;;7.20;98.20;;;;;;5063223;28;20486;-77
2021/11/04 08:02:00;;;;;;;1.60;1.30;;;7.20;98.20;;;;;;5066136;28;20462;-77
2021/11/04 08:04:27;;;;;;;1.60;1.20;;;7.20;98.20;;;;;;5070645;28;20501;-77
2021/11/04 08:06:54;;;;;;;1.60;1.27;;;7.30;98.20;;;;;;5069390;28;20488;-77
2021/11/04 08:09:21;;;;;;;1.60;1.20;;;7.30;98.20;;;;;;5062466;28;20947;-77
2021/11/04 08:11:48;;;;;;;1.60;1.30;;;7.40;98.20;;;;;;5058175;28;20960;-77
2021/11/04 08:14:15;;;;;;;1.60;1.30;;;7.50;98.20;;;;;;5063808;28;20469;-75
2021/11/04 08:16:44;;;;;;;1.60;1.27;;;7.50;98.20;;;;;;5063751;28;20584;-76
2021/11/04 08:19:10;;;;;;;1.60;1.27;;;7.60;98.20;;;;;;5061078;28;20505;-76
2021/11/04 08:21:37;;;;;;;1.60;1.20;;;7.70;98.20;;;;;;5064966;28;20476;-77
2021/11/04 08:24:04;;;;;;;1.63;1.33;;;7.70;98.20;;;;;;5057946;28;20462;-75
2021/11/04 08:26:33;;;;;;;1.60;1.40;;;7.80;98.20;;;;;;5071747;28;20496;-75
2021/11/04 08:29:01;;;;;;;1.60;1.20;;;7.80;98.20;;;;;;5065295;28;20484;-75
2021/11/04 08:31:28;;;;;;;1.60;1.20;;;7.90;98.20;;;;;;5068396;28;20502;-75
2021/11/04 08:33:56;;;;;;;1.60;1.30;;;7.90;98.20;;;;;;5056874;28;20477;-75
2021/11/04 08:36:24;;;;;;;1.60;1.30;;;7.90;98.20;;;;;;5070138;28;20465;-75
2021/11/04 08:38:51;;;;;;;1.60;1.20;;;7.90;98.20;;;;;;5069562;28;20955;-76
2021/11/04 08:41:18;;;;;;;1.60;1.10;;;7.90;98.20;;;;;;5068379;28;20819;-75
2021/11/04 08:43:46;;;;;;;1.60;1.20;;;7.90;98.20;;;;;;5069606;28;21121;-76
2021/11/04 08:46:13;;;;;;;1.60;1.20;;;7.90;98.20;;;;;;5064955;28;20942;-76
2021/11/04 08:48:40;;;;;;;1.60;1.20;;;7.90;98.20;;;;;;5063753;28;20491;-76
2021/11/04 08:51:08;;;;;;;1.60;1.20;;;7.90;98.20;;;;;;5069132;28;21136;-76
2021/11/04 08:53:35;;;;;;;1.60;1.20;;;7.90;98.20;;;;;;5067306;28;20465;-76
2021/11/04 08:56:02;;;;;;;1.60;1.20;;;7.90;98.20;;;;;;5058126;28;20465;-77
2021/11/04 08:58:29;;;;;;;1.60;1.30;;;7.90;98.20;;;;;;5069514;28;20853;-78
2021/11/04 09:00:57;;;;;;;1.60;1.20;;;7.90;98.20;;;;;;5069107;28;20489;-77
2021/11/04 09:03:24;;;;;;;1.60;1.30;;;7.90;98.20;;;;;;5072289;28;20470;-78
2021/11/04 09:05:51;;;;;;;1.60;1.20;;;7.80;98.20;;;;;;5064231;28;20833;-76
2021/11/04 09:08:19;;;;;;;1.60;1.30;;;7.80;98.20;;;;;;5052525;28;20499;-76
2021/11/04 09:10:46;;;;;;;1.60;1.20;;;7.70;98.20;;;;;;5069637;28;20457;-76
2021/11/04 09:13:13;;;;;;;1.60;1.20;;;7.70;98.20;;;;;;5071175;28;21132;-76
2021/11/04 09:15:40;;;;;;;1.60;1.30;;;7.70;98.20;;;;;;5062909;28;20494;-77
2021/11/04 09:18:07;;;;;;;1.70;1.50;;;7.70;98.20;;;;;;5062452;28;20755;-75
2021/11/04 09:21:00;;;;;;;1.60;1.30;;;7.80;98.20;;;;;;5061011;28;20573;-77
2021/11/04 09:23:28;;;;;;;1.60;1.20;;;7.90;98.20;;;;;;5054981;28;20457;-78
2021/11/04 09:25:56;;;;;;;1.60;1.20;;;7.80;98.20;;;;;;5065354;28;20461;-76
2021/11/04 09:28:28;;;;;;;1.60;1.20;;;7.80;98.20;;;;;;5064410;28;20481;-76
2021/11/04 09:31:10;;;;;;;1.60;1.20;;;7.90;98.20;;;;;;5072263;28;20768;-74
2021/11/04 09:33:37;;;;;;;1.60;1.20;;;7.90;98.20;;;;;;5085471;28;20496;-78
2021/11/04 09:36:11;;;;;;;1.60;1.20;;;7.90;98.20;;;;;;5076730;28;20468;-74
2021/11/04 09:38:47;;;;;;;1.60;1.23;;;7.90;98.20;;;;;;5070749;28;20468;-76
2021/11/04 09:41:16;;;;;;;1.60;1.20;;;8.00;98.20;;;;;;5079208;28;21077;-77
2021/11/04 09:43:45;;;;;;;1.60;1.20;;;8.10;98.20;;;;;;5085955;28;20480;-78
2021/11/04 09:46:21;;;;;;;1.60;1.20;;;8.10;98.20;;;;;;5074826;28;20541;-77
2021/11/04 09:48:50;;;;;;;1.60;1.20;;;8.20;98.20;;;;;;5085383;28;20519;-78
2021/11/04 09:51:30;;;;;;;1.90;1.70;;;8.30;98.20;;;;;;5080659;28;20450;-75
2021/11/04 09:54:00;;;;;;;1.60;1.20;;;8.40;98.20;;;;;;5078861;28;20496;-75
2021/11/04 09:56:35;;;;;;;1.60;1.27;;;8.40;98.20;;;;;;5081891;28;20501;-77
2021/11/04 09:59:04;;;;;;;1.60;1.20;;;8.40;98.20;;;;;;5075289;28;20530;-75
2021/11/04 10:01:35;;;;;;;1.60;1.20;;;8.40;98.20;;;;;;5086045;28;21053;-79
2021/11/04 10:04:05;;;;;;;1.60;1.20;;;8.50;98.20;;;;;;5084260;28;20466;-76
2021/11/04 10:06:42;;;;;;;1.60;1.20;;;8.60;98.20;;;;;;5092684;28;21023;-79
2021/11/04 10:09:13;;;;;;;1.60;1.20;;;8.60;98.20;;;;;;5075250;28;20457;-77
2021/11/04 10:11:46;;;;;;;1.60;1.20;;;8.70;98.20;;;;;;5077810;28;20503;-77
2021/11/04 10:14:26;;;;;;;1.60;1.30;;;8.70;98.20;;;;;;5072626;28;20465;-76
2021/11/04 10:16:53;;;;;;;1.60;1.30;;;8.70;98.20;;;;;;5067061;28;20577;-76
2021/11/04 10:19:28;;;;;;;1.60;1.10;;;8.60;98.20;;;;;;5078550;28;20486;-77
2021/11/04 10:21:57;;;;;;;3.80;3.00;;;8.70;98.20;;;;;;5066199;28;20507;-76
2021/11/04 10:24:32;;;;;;;1.60;1.20;;;8.70;98.20;;;;;;5071613;28;20491;-77
2021/11/04 10:26:59;;;;;;;1.77;1.63;;;8.70;98.20;;;;;;5062118;28;20486;-76
2021/11/04 10:29:39;;;;;;;1.60;1.20;;;8.70;98.20;;;;;;5076951;28;20477;-76
2021/11/04 10:32:07;;;;;;;1.60;1.20;;;8.80;98.20;;;;;;5063029;28;20614;-78
2021/11/04 10:34:37;;;;;;;1.60;1.20;;;8.80;98.20;;;;;;5074373;28;20457;-76
2021/11/04 10:37:21;;;;;;;1.60;1.30;;;8.90;98.20;;;;;;5075302;28;20493;-75
2021/11/04 10:39:51;;;;;;;2.00;1.57;;;9.00;98.20;;;;;;5066856;28;20496;-75
2021/11/04 10:42:28;;;;;;;1.60;1.20;;;9.10;98.20;;;;;;5069155;28;20465;-75
2021/11/04 10:44:59;;;;;;;1.70;1.40;;;9.10;98.20;;;;;;5076088;28;20546;-77
2021/11/04 10:47:27;;;;;;;1.60;1.20;;;9.20;98.20;;;;;;5071813;28;20495;-77
2021/11/04 10:49:54;;;;;;;1.60;1.17;;;9.30;98.20;;;;;;5067836;28;20466;-76
2021/11/04 10:52:24;;;;;;;2.13;1.83;;;9.30;98.20;;;;;;5063150;28;20893;-76
2021/11/04 10:54:54;;;;;;;1.60;1.10;;;9.40;98.20;;;;;;5068806;28;20454;-76
2021/11/04 10:57:35;;;;;;;1.60;1.10;;;9.50;98.20;;;;;;5078050;28;20499;-75
2021/11/04 11:00:15;;;;;;;1.63;1.20;;;9.50;98.20;;;;;;5071707;28;20572;-76
2021/11/04 11:03:06;;;;;;;1.60;1.10;;;9.50;98.20;;;;;;5074543;28;20484;-77
2021/11/04 11:05:36;;;;;;;1.60;1.20;;;9.50;98.20;;;;;;5077514;28;20465;-78
2021/11/04 11:08:06;;;;;;;1.63;1.10;;;9.40;98.20;;;;;;5072930;28;20510;-75
2021/11/04 11:10:35;;;;;;;1.60;1.10;;;9.40;98.20;;;;;;5074615;28;20557;-76
2021/11/04 11:13:20;;;;;;;1.60;1.20;;;9.40;98.20;;;;;;5076336;28;20468;-78
2021/11/04 11:16:01;;;;;;;1.70;1.40;;;9.40;98.20;;;;;;5076990;28;20449;-77
2021/11/04 11:18:29;;;;;;;1.60;1.20;;;9.40;98.20;;;;;;5078579;28;20485;-77
2021/11/04 11:20:58;;;;;;;1.60;1.10;;;9.50;98.20;;;;;;5082679;28;20580;-76
2021/11/04 11:23:28;;;;;;;1.60;1.10;;;9.50;98.20;;;;;;5068385;28;20466;-77
2021/11/04 11:25:58;;;;;;;1.60;1.10;;;9.50;98.20;;;;;;5064800;22;20576;-77
2021/11/04 11:28:29;;;;;;;2.53;2.33;;;9.60;98.20;;;;;;5059647;28;20466;-76
2021/11/04 11:31:19;;;;;;;1.60;1.17;;;9.60;98.20;;;;;;5066174;28;20552;-77
2021/11/04 11:33:47;;;;;;;1.60;1.20;;;9.70;98.20;;;;;;5069475;28;20469;-77
2021/11/04 11:36:17;;;;;;;2.50;2.30;;;9.90;98.20;;;;;;5068398;28;20481;-77
2021/11/04 11:39:09;;;;;;;1.60;1.20;;;9.90;98.20;;;;;;5065298;28;20519;-77
2021/11/04 11:42:09;;;;;;;1.60;1.20;;;10.00;98.20;;;;;;5066156;28;20849;-76
2021/11/04 11:44:40;;;;;;;1.60;1.10;;;10.10;98.20;;;;;;5058470;28;20459;-76
2021/11/04 11:47:13;;;;;;;1.60;1.10;;;10.20;98.20;;;;;;5068506;28;20572;-76
2021/11/04 11:49:41;;;;;;;1.80;1.30;;;10.40;98.20;;;;;;5075147;28;20458;-77
2021/11/04 11:52:09;;;;;;;1.60;1.10;;;10.50;98.20;;;;;;5072860;28;20475;-78
2021/11/04 11:55:06;;;;;;;1.60;1.10;;;10.50;98.20;;;;;;5073639;28;20461;-77
2021/11/04 11:57:37;;;;;;;1.80;1.40;;;10.60;98.20;;;;;;5063993;28;20518;-78
2021/11/04 12:00:07;;;;;;;1.60;1.10;;;10.70;98.20;;;;;;5081837;28;20569;-77
2021/11/04 12:02:57;;;;;;;1.60;1.20;;;10.80;98.20;;;;;;5063916;28;20541;-77
2021/11/04 12:05:39;;;;;;;1.60;1.10;;;10.90;98.20;;;;;;5062582;28;20478;-78
2021/11/04 12:08:34;;;;;;;1.60;1.10;;;10.90;98.20;;;;;;5067267;28;20829;-78
2021/11/04 12:11:03;;;;;;;1.60;1.10;;;10.90;98.20;;;;;;5061835;28;20875;-77
2021/11/04 12:13:39;;;;;;;1.60;1.10;;;10.90;98.20;;;;;;5062604;28;20469;-78
2021/11/04 12:16:07;;;;;;;1.60;1.10;;;11.00;98.20;;;;;;5058621;28;20955;-78
2021/11/04 12:18:51;;;;;;;1.60;1.10;;;10.90;98.20;;;;;;5072848;28;20806;-78
2021/11/04 12:21:26;;;;;;;1.60;1.10;;;10.90;98.20;;;;;;5074671;28;20487;-78
2021/11/04 12:23:55;;;;;;;1.60;1.10;;;10.90;98.20;;;;;;5064129;28;20469;-78
2021/11/04 12:26:30;;;;;;;1.60;1.10;;;10.90;98.20;;;;;;5066367;28;20531;-77
2021/11/04 12:28:58;;;;;;;1.60;1.00;;;11.00;98.20;;;;;;5056012;28;20476;-77
2021/11/04 12:31:29;;;;;;;1.60;1.03;;;11.10;98.20;;;;;;5059020;28;20460;-79
2021/11/04 12:33:57;;;;;;;1.60;1.00;;;11.20;98.20;;;;;;5067761;28;20449;-78
2021/11/04 12:36:33;;;;;;;3.20;1.77;;;11.30;98.20;;;;;;5067518;28;20479;-78
2021/11/04 12:39:00;;;;;;;1.60;1.00;;;11.30;98.20;;;;;;5055471;28;20462;-78
2021/11/04 12:41:28;;;;;;;1.60;1.10;;;11.30;98.20;;;;;;5063557;28;20639;-78
2021/11/04 12:44:02;;;;;;;1.60;1.13;;;11.30;98.20;;;;;;5070449;28;20467;-78
2021/11/04 12:46:31;;;;;;;1.60;1.10;;;11.20;98.20;;;;;;5077918;28;20489;-78
2021/11/04 12:48:59;;;;;;;1.60;1.10;;;11.20;98.20;;;;;;5076493;28;20457;-77
2021/11/04 12:51:27;;;;;;;1.60;1.10;;;11.20;98.20;;;;;;5074988;28;20457;-77
2021/11/04 12:53:56;;;;;;;1.60;1.03;;;11.20;98.20;;;;;;5060114;28;20468;-76
2021/11/04 12:56:41;;;;;;;1.60;1.10;;;11.20;98.20;;;;;;5057005;28;20485;-77
2021/11/04 12:59:11;;;;;;;1.60;1.10;;;11.20;98.20;;;;;;5046434;28;20848;-77
2021/11/04 13:02:01;;;;;;;1.70;1.50;;;11.20;98.20;;;;;;5063211;28;20481;-77
2021/11/04 13:04:29;;;;;;;2.60;2.40;;;11.30;98.20;;;;;;5066003;28;20804;-77
2021/11/04 13:06:58;;;;;;;1.60;1.10;;;11.30;98.20;;;;;;5068105;28;20589;-79
2021/11/04 13:09:26;;;;;;;1.53;1.00;;;11.40;98.20;;;;;;5073440;28;20461;-79
2021/11/04 13:12:07;;;;;;;1.60;1.00;;;11.40;98.20;;;;;;5067191;28;20473;-78